Terminal Aerodrome Forecast
Issued by NWS Twin Cities, MN

Home | Current Version | Previous Version | Text Only | Print | Product List | Glossary Off
Versions: 1 2 3 4 5 6 7 8 9 10 11 12 13 14 15 16 17 18 19 20 21 22 23 24 25

000
FTUS43 KMPX 250200 AAA
TAFMSP
TAF AMD
KMSP 250233Z 2503/2606 17009KT P6SM BKN080
     FM250930 15011KT 6SM -SHRA VCTS SCT035 OVC050CB
      TEMPO 2510/2512 3SM TSRA BR OVC030CB
     FM251300 17010KT P6SM SCT020 BKN035
     FM252000 22007KT P6SM BKN040
     FM260200 28005KT P6SM FEW040=

USA.gov is the U.S. government's official web portal to all federal, state and local government web resources and services.